sensor_id;sensor_type;location;lat;lon;timestamp;P1;durP1;ratioP1;P2;durP2;ratioP2
24739;SDS011;45234;48.148;17.128;2022-11-03T13:17:50;20.13;;;9.48;;
24739;SDS011;45234;48.148;17.128;2022-11-03T13:19:29;18.77;;;9.30;;
24739;SDS011;45234;48.148;17.128;2022-11-03T13:19:42;21.33;;;9.90;;
24739;SDS011;45234;48.148;17.128;2022-11-03T13:19:55;19.65;;;10.20;;
24739;SDS011;45234;48.148;17.128;2022-11-03T13:20:07;17.52;;;10.20;;
24739;SDS011;45234;48.148;17.128;2022-11-03T13:20:20;18.02;;;10.15;;
24739;SDS011;45234;48.148;17.128;2022-11-03T13:20:33;17.83;;;10.15;;
24739;SDS011;45234;48.148;17.128;2022-11-03T13:20:46;19.17;;;10.45;;
24739;SDS011;45234;48.148;17.128;2022-11-03T13:20:59;20.67;;;10.48;;
24739;SDS011;45234;48.148;17.128;2022-11-03T13:21:12;17.65;;;10.27;;
24739;SDS011;45234;48.148;17.128;2022-11-03T13:21:25;14.00;;;10.23;;
24739;SDS011;45234;48.148;17.128;2022-11-03T13:21:38;13.38;;;9.88;;
24739;SDS011;45234;48.148;17.128;2022-11-03T13:21:51;16.63;;;9.50;;
24739;SDS011;45234;48.148;17.128;2022-11-03T13:22:03;17.67;;;9.75;;
24739;SDS011;45234;48.148;17.128;2022-11-03T13:22:16;16.85;;;10.10;;
24739;SDS011;45234;48.148;17.128;2022-11-03T13:22:31;14.85;;;10.07;;
24739;SDS011;45234;48.148;17.128;2022-11-03T13:22:44;15.95;;;9.93;;
24739;SDS011;45234;48.148;17.128;2022-11-03T13:22:56;17.27;;;9.93;;
24739;SDS011;45234;48.148;17.128;2022-11-03T13:23:10;16.92;;;9.90;;
24739;SDS011;45234;48.148;17.128;2022-11-03T13:23:25;14.85;;;9.75;;
24739;SDS011;45234;48.148;17.128;2022-11-03T13:23:38;14.77;;;9.50;;
24739;SDS011;45234;48.148;17.128;2022-11-03T13:23:51;16.65;;;9.43;;
24739;SDS011;45234;48.148;17.128;2022-11-03T13:24:04;15.77;;;9.07;;
24739;SDS011;45234;48.148;17.128;2022-11-03T13:24:16;16.00;;;9.25;;
24739;SDS011;45234;48.148;17.128;2022-11-03T13:24:29;16.38;;;9.52;;
24739;SDS011;45234;48.148;17.128;2022-11-03T13:24:42;16.13;;;9.35;;
24739;SDS011;45234;48.148;17.128;2022-11-03T13:24:54;16.10;;;8.95;;
24739;SDS011;45234;48.148;17.128;2022-11-03T13:25:07;16.33;;;9.10;;
24739;SDS011;45234;48.148;17.128;2022-11-03T13:25:20;16.23;;;9.23;;
24739;SDS011;45234;48.148;17.128;2022-11-03T13:25:35;16.70;;;9.48;;
24739;SDS011;45234;48.148;17.128;2022-11-03T13:25:47;16.52;;;9.35;;
24739;SDS011;45234;48.148;17.128;2022-11-03T13:26:00;17.25;;;9.15;;
24739;SDS011;45234;48.148;17.128;2022-11-03T13:26:13;15.45;;;8.85;;
24739;SDS011;45234;48.148;17.128;2022-11-03T13:26:26;15.07;;;8.30;;
24739;SDS011;45234;48.148;17.128;2022-11-03T13:26:38;16.17;;;8.23;;
24739;SDS011;45234;48.148;17.128;2022-11-03T13:26:51;16.60;;;7.65;;
24739;SDS011;45234;48.148;17.128;2022-11-03T13:27:04;16.88;;;8.10;;
24739;SDS011;45234;48.148;17.128;2022-11-03T13:27:16;15.00;;;8.50;;
24739;SDS011;45234;48.148;17.128;2022-11-03T13:29:49;12.23;;;7.00;;
24739;SDS011;45234;48.148;17.128;2022-11-03T13:32:16;11.85;;;6.82;;
24739;SDS011;45234;48.148;17.128;2022-11-03T13:34:43;10.25;;;6.50;;
24739;SDS011;45234;48.148;17.128;2022-11-03T13:37:10;13.05;;;7.32;;
24739;SDS011;45234;48.148;17.128;2022-11-03T13:39:36;13.27;;;6.38;;
24739;SDS011;45234;48.148;17.128;2022-11-03T13:42:03;10.93;;;7.10;;
24739;SDS011;45234;48.148;17.128;2022-11-03T13:44:30;14.43;;;7.78;;
24739;SDS011;45234;48.148;17.128;2022-11-03T13:46:57;12.68;;;7.05;;
24739;SDS011;45234;48.148;17.128;2022-11-03T13:49:24;16.98;;;7.68;;
24739;SDS011;45234;48.148;17.128;2022-11-03T13:52:10;13.10;;;6.47;;
24739;SDS011;45234;48.148;17.128;2022-11-03T13:54:37;12.00;;;7.10;;
24739;SDS011;45234;48.148;17.128;2022-11-03T13:57:24;12.18;;;6.05;;
24739;SDS011;45234;48.148;17.128;2022-11-03T14:00:11;9.27;;;5.47;;
24739;SDS011;45234;48.148;17.128;2022-11-03T14:02:39;9.43;;;5.15;;
24739;SDS011;45234;48.148;17.128;2022-11-03T14:05:26;9.55;;;5.15;;
24739;SDS011;45234;48.148;17.128;2022-11-03T14:07:52;9.75;;;4.85;;
24739;SDS011;45234;48.148;17.128;2022-11-03T14:10:19;9.85;;;5.30;;
24739;SDS011;45234;48.148;17.128;2022-11-03T14:12:46;8.98;;;4.75;;
24739;SDS011;45234;48.148;17.128;2022-11-03T14:15:13;8.85;;;5.40;;
24739;SDS011;45234;48.148;17.128;2022-11-03T14:17:40;7.53;;;4.85;;
24739;SDS011;45234;48.148;17.128;2022-11-03T14:20:07;11.43;;;6.40;;
24739;SDS011;45234;48.148;17.128;2022-11-03T14:22:36;14.95;;;8.32;;
24739;SDS011;45234;48.148;17.128;2022-11-03T14:25:05;17.35;;;10.88;;
24739;SDS011;45234;48.148;17.128;2022-11-03T14:27:33;25.27;;;13.80;;
24739;SDS011;45234;48.148;17.128;2022-11-03T14:30:00;22.30;;;12.55;;
24739;SDS011;45234;48.148;17.128;2022-11-03T14:32:28;26.83;;;14.82;;
24739;SDS011;45234;48.148;17.128;2022-11-03T14:34:55;27.88;;;16.13;;
24739;SDS011;45234;48.148;17.128;2022-11-03T14:37:22;28.90;;;16.48;;
24739;SDS011;45234;48.148;17.128;2022-11-03T14:39:50;36.42;;;20.20;;
24739;SDS011;45234;48.148;17.128;2022-11-03T14:42:17;31.85;;;18.98;;
24739;SDS011;45234;48.148;17.128;2022-11-03T14:44:44;36.65;;;21.20;;
24739;SDS011;45234;48.148;17.128;2022-11-03T14:47:16;34.00;;;20.52;;
24739;SDS011;45234;48.148;17.128;2022-11-03T14:49:44;32.83;;;20.98;;
24739;SDS011;45234;48.148;17.128;2022-11-03T14:52:11;34.25;;;20.40;;
24739;SDS011;45234;48.148;17.128;2022-11-03T14:54:38;32.33;;;19.33;;
24739;SDS011;45234;48.148;17.128;2022-11-03T14:57:05;34.97;;;21.05;;
24739;SDS011;45234;48.148;17.128;2022-11-03T14:59:32;34.35;;;21.10;;
24739;SDS011;45234;48.148;17.128;2022-11-03T15:01:59;36.65;;;20.02;;
24739;SDS011;45234;48.148;17.128;2022-11-03T15:04:26;31.98;;;20.50;;
24739;SDS011;45234;48.148;17.128;2022-11-03T15:06:53;31.17;;;19.92;;
24739;SDS011;45234;48.148;17.128;2022-11-03T15:09:20;34.97;;;21.50;;
24739;SDS011;45234;48.148;17.128;2022-11-03T15:11:47;34.45;;;20.55;;
24739;SDS011;45234;48.148;17.128;2022-11-03T15:14:14;32.97;;;20.23;;
24739;SDS011;45234;48.148;17.128;2022-11-03T15:16:41;37.92;;;21.55;;
24739;SDS011;45234;48.148;17.128;2022-11-03T15:19:09;39.58;;;24.13;;
24739;SDS011;45234;48.148;17.128;2022-11-03T15:21:36;35.30;;;24.33;;
24739;SDS011;45234;48.148;17.128;2022-11-03T15:24:02;48.47;;;25.05;;
24739;SDS011;45234;48.148;17.128;2022-11-03T15:26:49;42.70;;;23.42;;
24739;SDS011;45234;48.148;17.128;2022-11-03T15:29:17;38.08;;;20.65;;
24739;SDS011;45234;48.148;17.128;2022-11-03T15:31:44;32.00;;;20.45;;
24739;SDS011;45234;48.148;17.128;2022-11-03T15:34:13;36.38;;;20.52;;
24739;SDS011;45234;48.148;17.128;2022-11-03T15:36:40;32.25;;;20.23;;
24739;SDS011;45234;48.148;17.128;2022-11-03T15:39:07;40.67;;;21.33;;
24739;SDS011;45234;48.148;17.128;2022-11-03T15:41:34;34.13;;;19.45;;
24739;SDS011;45234;48.148;17.128;2022-11-03T15:44:00;34.92;;;19.20;;
24739;SDS011;45234;48.148;17.128;2022-11-03T15:46:27;32.70;;;19.40;;
24739;SDS011;45234;48.148;17.128;2022-11-03T15:48:54;30.58;;;20.33;;
24739;SDS011;45234;48.148;17.128;2022-11-03T15:51:22;34.90;;;20.38;;
24739;SDS011;45234;48.148;17.128;2022-11-03T15:53:50;31.92;;;19.55;;
24739;SDS011;45234;48.148;17.128;2022-11-03T15:56:23;32.63;;;20.27;;
24739;SDS011;45234;48.148;17.128;2022-11-03T15:58:51;35.83;;;20.05;;
24739;SDS011;45234;48.148;17.128;2022-11-03T16:01:18;38.15;;;20.17;;
24739;SDS011;45234;48.148;17.128;2022-11-03T16:03:45;32.72;;;19.98;;
24739;SDS011;45234;48.148;17.128;2022-11-03T16:06:13;33.08;;;20.02;;
24739;SDS011;45234;48.148;17.128;2022-11-03T16:08:40;38.55;;;20.67;;
24739;SDS011;45234;48.148;17.128;2022-11-03T16:11:08;34.90;;;21.42;;
24739;SDS011;45234;48.148;17.128;2022-11-03T16:13:34;36.38;;;21.83;;
24739;SDS011;45234;48.148;17.128;2022-11-03T16:16:01;40.50;;;22.83;;
24739;SDS011;45234;48.148;17.128;2022-11-03T16:18:28;31.83;;;21.42;;
24739;SDS011;45234;48.148;17.128;2022-11-03T16:20:55;34.92;;;22.60;;
24739;SDS011;45234;48.148;17.128;2022-11-03T16:23:21;34.75;;;22.35;;
24739;SDS011;45234;48.148;17.128;2022-11-03T16:25:48;33.00;;;20.73;;
24739;SDS011;45234;48.148;17.128;2022-11-03T16:28:15;35.13;;;21.33;;
24739;SDS011;45234;48.148;17.128;2022-11-03T16:30:42;40.17;;;23.38;;
24739;SDS011;45234;48.148;17.128;2022-11-03T16:33:14;36.88;;;22.40;;
24739;SDS011;45234;48.148;17.128;2022-11-03T16:35:41;40.83;;;24.55;;
24739;SDS011;45234;48.148;17.128;2022-11-03T16:38:08;38.10;;;24.35;;
24739;SDS011;45234;48.148;17.128;2022-11-03T16:40:35;40.05;;;24.85;;
24739;SDS011;45234;48.148;17.128;2022-11-03T16:43:02;43.65;;;24.88;;
24739;SDS011;45234;48.148;17.128;2022-11-03T16:45:28;42.25;;;26.33;;
24739;SDS011;45234;48.148;17.128;2022-11-03T16:48:02;43.00;;;26.23;;
24739;SDS011;45234;48.148;17.128;2022-11-03T16:50:32;43.50;;;25.13;;
24739;SDS011;45234;48.148;17.128;2022-11-03T16:52:59;44.92;;;24.98;;
24739;SDS011;45234;48.148;17.128;2022-11-03T16:55:26;42.60;;;25.20;;
24739;SDS011;45234;48.148;17.128;2022-11-03T16:57:52;41.42;;;25.77;;
24739;SDS011;45234;48.148;17.128;2022-11-03T17:00:19;44.90;;;24.83;;
24739;SDS011;45234;48.148;17.128;2022-11-03T17:02:47;40.00;;;24.58;;
24739;SDS011;45234;48.148;17.128;2022-11-03T17:05:14;45.53;;;24.77;;
24739;SDS011;45234;48.148;17.128;2022-11-03T17:07:43;40.00;;;23.95;;
24739;SDS011;45234;48.148;17.128;2022-11-03T17:10:17;42.47;;;25.65;;
24739;SDS011;45234;48.148;17.128;2022-11-03T17:12:44;43.00;;;24.52;;
24739;SDS011;45234;48.148;17.128;2022-11-03T17:15:11;41.13;;;25.15;;
24739;SDS011;45234;48.148;17.128;2022-11-03T17:17:38;37.90;;;24.58;;
24739;SDS011;45234;48.148;17.128;2022-11-03T17:20:05;39.72;;;24.58;;
24739;SDS011;45234;48.148;17.128;2022-11-03T17:22:33;43.30;;;25.80;;
24739;SDS011;45234;48.148;17.128;2022-11-03T17:25:00;39.10;;;24.08;;
24739;SDS011;45234;48.148;17.128;2022-11-03T17:27:28;43.17;;;24.10;;
24739;SDS011;45234;48.148;17.128;2022-11-03T17:30:04;42.35;;;26.17;;
24739;SDS011;45234;48.148;17.128;2022-11-03T17:32:38;43.33;;;24.20;;
24739;SDS011;45234;48.148;17.128;2022-11-03T17:35:23;47.10;;;26.25;;
24739;SDS011;45234;48.148;17.128;2022-11-03T17:38:19;43.75;;;26.42;;
24739;SDS011;45234;48.148;17.128;2022-11-03T17:40:47;37.30;;;24.25;;
24739;SDS011;45234;48.148;17.128;2022-11-03T17:43:25;47.63;;;26.75;;
24739;SDS011;45234;48.148;17.128;2022-11-03T17:45:54;44.72;;;25.63;;
24739;SDS011;45234;48.148;17.128;2022-11-03T17:48:23;43.55;;;25.63;;
24739;SDS011;45234;48.148;17.128;2022-11-03T17:50:52;46.15;;;26.60;;
24739;SDS011;45234;48.148;17.128;2022-11-03T17:53:21;48.22;;;25.90;;
24739;SDS011;45234;48.148;17.128;2022-11-03T17:55:49;48.70;;;28.10;;
24739;SDS011;45234;48.148;17.128;2022-11-03T17:58:37;42.67;;;26.13;;
24739;SDS011;45234;48.148;17.128;2022-11-03T18:01:10;46.65;;;25.95;;
24739;SDS011;45234;48.148;17.128;2022-11-03T18:03:45;44.15;;;24.55;;
24739;SDS011;45234;48.148;17.128;2022-11-03T18:06:15;50.70;;;26.83;;
24739;SDS011;45234;48.148;17.128;2022-11-03T18:08:47;47.65;;;25.88;;
24739;SDS011;45234;48.148;17.128;2022-11-03T18:11:17;46.42;;;25.73;;
24739;SDS011;45234;48.148;17.128;2022-11-03T18:14:08;50.78;;;27.40;;
24739;SDS011;45234;48.148;17.128;2022-11-03T18:16:35;46.92;;;26.65;;
24739;SDS011;45234;48.148;17.128;2022-11-03T18:19:01;51.38;;;27.30;;
24739;SDS011;45234;48.148;17.128;2022-11-03T18:21:29;46.13;;;28.20;;
24739;SDS011;45234;48.148;17.128;2022-11-03T18:23:55;50.22;;;26.88;;
24739;SDS011;45234;48.148;17.128;2022-11-03T18:26:24;55.58;;;29.30;;
24739;SDS011;45234;48.148;17.128;2022-11-03T18:28:51;49.40;;;27.33;;
24739;SDS011;45234;48.148;17.128;2022-11-03T18:31:22;45.33;;;28.52;;
24739;SDS011;45234;48.148;17.128;2022-11-03T18:34:00;51.55;;;28.42;;
24739;SDS011;45234;48.148;17.128;2022-11-03T18:36:33;46.33;;;29.30;;
24739;SDS011;45234;48.148;17.128;2022-11-03T18:38:59;54.60;;;30.25;;
24739;SDS011;45234;48.148;17.128;2022-11-03T18:41:27;50.92;;;29.20;;
24739;SDS011;45234;48.148;17.128;2022-11-03T18:44:01;48.45;;;28.88;;
24739;SDS011;45234;48.148;17.128;2022-11-03T18:46:35;52.55;;;30.02;;
24739;SDS011;45234;48.148;17.128;2022-11-03T18:49:02;52.00;;;31.02;;
24739;SDS011;45234;48.148;17.128;2022-11-03T18:51:29;55.72;;;33.65;;
24739;SDS011;45234;48.148;17.128;2022-11-03T18:53:56;53.05;;;30.05;;
24739;SDS011;45234;48.148;17.128;2022-11-03T18:56:23;47.05;;;29.63;;
24739;SDS011;45234;48.148;17.128;2022-11-03T18:58:52;55.30;;;31.75;;
24739;SDS011;45234;48.148;17.128;2022-11-03T19:01:21;57.65;;;32.00;;
24739;SDS011;45234;48.148;17.128;2022-11-03T19:03:53;55.22;;;32.40;;
24739;SDS011;45234;48.148;17.128;2022-11-03T19:06:44;51.97;;;31.35;;
24739;SDS011;45234;48.148;17.128;2022-11-03T19:09:15;59.08;;;32.75;;
24739;SDS011;45234;48.148;17.128;2022-11-03T19:11:47;54.92;;;31.42;;
24739;SDS011;45234;48.148;17.128;2022-11-03T19:14:22;52.17;;;30.20;;
24739;SDS011;45234;48.148;17.128;2022-11-03T19:16:49;51.53;;;30.13;;
24739;SDS011;45234;48.148;17.128;2022-11-03T19:19:38;50.33;;;29.77;;
24739;SDS011;45234;48.148;17.128;2022-11-03T19:22:12;52.55;;;32.20;;
24739;SDS011;45234;48.148;17.128;2022-11-03T19:24:43;53.50;;;31.20;;
24739;SDS011;45234;48.148;17.128;2022-11-03T19:27:13;50.90;;;30.92;;
24739;SDS011;45234;48.148;17.128;2022-11-03T19:29:40;48.38;;;28.23;;
24739;SDS011;45234;48.148;17.128;2022-11-03T19:32:18;49.00;;;29.20;;
24739;SDS011;45234;48.148;17.128;2022-11-03T19:34:51;53.13;;;31.05;;
24739;SDS011;45234;48.148;17.128;2022-11-03T19:37:37;52.35;;;31.40;;
24739;SDS011;45234;48.148;17.128;2022-11-03T19:40:04;49.97;;;30.50;;
24739;SDS011;45234;48.148;17.128;2022-11-03T19:42:34;54.38;;;32.33;;
24739;SDS011;45234;48.148;17.128;2022-11-03T19:45:09;52.72;;;30.35;;
24739;SDS011;45234;48.148;17.128;2022-11-03T19:47:42;52.22;;;30.85;;
24739;SDS011;45234;48.148;17.128;2022-11-03T19:50:31;55.40;;;30.38;;
24739;SDS011;45234;48.148;17.128;2022-11-03T19:53:01;52.15;;;31.70;;
24739;SDS011;45234;48.148;17.128;2022-11-03T19:55:32;53.10;;;31.38;;
24739;SDS011;45234;48.148;17.128;2022-11-03T19:58:12;55.47;;;32.40;;
24739;SDS011;45234;48.148;17.128;2022-11-03T20:00:41;55.72;;;32.13;;
24739;SDS011;45234;48.148;17.128;2022-11-03T20:03:08;56.67;;;32.75;;
24739;SDS011;45234;48.148;17.128;2022-11-03T20:05:36;50.20;;;30.60;;
24739;SDS011;45234;48.148;17.128;2022-11-03T20:08:05;52.53;;;31.30;;
24739;SDS011;45234;48.148;17.128;2022-11-03T20:10:36;54.43;;;32.10;;
24739;SDS011;45234;48.148;17.128;2022-11-03T20:13:03;58.25;;;32.03;;
24739;SDS011;45234;48.148;17.128;2022-11-03T20:15:33;48.15;;;29.50;;
24739;SDS011;45234;48.148;17.128;2022-11-03T20:18:00;48.17;;;29.85;;
24739;SDS011;45234;48.148;17.128;2022-11-03T20:20:28;56.05;;;32.33;;
24739;SDS011;45234;48.148;17.128;2022-11-03T20:22:59;58.63;;;31.13;;
24739;SDS011;45234;48.148;17.128;2022-11-03T20:25:27;52.67;;;30.70;;
24739;SDS011;45234;48.148;17.128;2022-11-03T20:27:58;47.25;;;29.58;;
24739;SDS011;45234;48.148;17.128;2022-11-03T20:30:26;55.53;;;31.60;;
24739;SDS011;45234;48.148;17.128;2022-11-03T20:32:53;58.97;;;34.40;;
24739;SDS011;45234;48.148;17.128;2022-11-03T20:35:20;62.83;;;35.90;;
24739;SDS011;45234;48.148;17.128;2022-11-03T20:37:54;60.83;;;35.50;;
24739;SDS011;45234;48.148;17.128;2022-11-03T20:40:23;59.67;;;34.55;;
24739;SDS011;45234;48.148;17.128;2022-11-03T20:42:55;56.15;;;33.97;;
24739;SDS011;45234;48.148;17.128;2022-11-03T20:45:24;59.45;;;35.10;;
24739;SDS011;45234;48.148;17.128;2022-11-03T20:47:54;56.88;;;32.83;;
24739;SDS011;45234;48.148;17.128;2022-11-03T20:50:21;56.80;;;32.83;;
24739;SDS011;45234;48.148;17.128;2022-11-03T20:52:49;48.42;;;29.55;;
24739;SDS011;45234;48.148;17.128;2022-11-03T20:55:20;57.50;;;33.08;;
24739;SDS011;45234;48.148;17.128;2022-11-03T20:57:48;53.20;;;32.65;;
24739;SDS011;45234;48.148;17.128;2022-11-03T21:00:21;52.92;;;32.28;;
24739;SDS011;45234;48.148;17.128;2022-11-03T21:02:49;55.55;;;32.85;;
24739;SDS011;45234;48.148;17.128;2022-11-03T21:05:22;47.95;;;29.60;;
24739;SDS011;45234;48.148;17.128;2022-11-03T21:07:53;51.50;;;31.25;;
24739;SDS011;45234;48.148;17.128;2022-11-03T21:10:22;51.38;;;30.92;;
24739;SDS011;45234;48.148;17.128;2022-11-03T21:12:49;48.40;;;29.38;;
24739;SDS011;45234;48.148;17.128;2022-11-03T21:15:26;53.38;;;31.88;;
24739;SDS011;45234;48.148;17.128;2022-11-03T21:18:31;51.15;;;30.95;;
24739;SDS011;45234;48.148;17.128;2022-11-03T21:21:16;54.75;;;31.85;;
24739;SDS011;45234;48.148;17.128;2022-11-03T21:23:45;52.55;;;32.05;;
24739;SDS011;45234;48.148;17.128;2022-11-03T21:26:12;61.10;;;33.67;;
24739;SDS011;45234;48.148;17.128;2022-11-03T21:28:39;50.58;;;31.50;;
24739;SDS011;45234;48.148;17.128;2022-11-03T21:31:07;53.90;;;31.27;;
24739;SDS011;45234;48.148;17.128;2022-11-03T21:33:37;52.83;;;30.60;;
24739;SDS011;45234;48.148;17.128;2022-11-03T21:36:04;51.90;;;31.13;;
24739;SDS011;45234;48.148;17.128;2022-11-03T21:38:31;54.28;;;31.48;;
24739;SDS011;45234;48.148;17.128;2022-11-03T21:40:58;59.22;;;32.88;;
24739;SDS011;45234;48.148;17.128;2022-11-03T21:43:45;57.00;;;32.05;;
24739;SDS011;45234;48.148;17.128;2022-11-03T21:46:32;57.92;;;33.78;;
24739;SDS011;45234;48.148;17.128;2022-11-03T21:48:59;54.90;;;33.47;;
24739;SDS011;45234;48.148;17.128;2022-11-03T21:51:45;61.00;;;33.55;;
24739;SDS011;45234;48.148;17.128;2022-11-03T21:54:11;57.30;;;33.15;;
24739;SDS011;45234;48.148;17.128;2022-11-03T21:56:38;55.08;;;32.20;;
24739;SDS011;45234;48.148;17.128;2022-11-03T21:59:05;56.17;;;34.40;;
24739;SDS011;45234;48.148;17.128;2022-11-03T22:01:32;63.55;;;36.17;;
24739;SDS011;45234;48.148;17.128;2022-11-03T22:03:59;67.47;;;36.45;;
24739;SDS011;45234;48.148;17.128;2022-11-03T22:06:25;60.60;;;35.03;;
24739;SDS011;45234;48.148;17.128;2022-11-03T22:08:52;64.32;;;37.28;;
24739;SDS011;45234;48.148;17.128;2022-11-03T22:11:19;63.13;;;35.33;;
24739;SDS011;45234;48.148;17.128;2022-11-03T22:13:50;68.22;;;35.33;;
24739;SDS011;45234;48.148;17.128;2022-11-03T22:16:21;70.22;;;36.83;;
24739;SDS011;45234;48.148;17.128;2022-11-03T22:19:02;64.90;;;34.95;;
24739;SDS011;45234;48.148;17.128;2022-11-03T22:21:49;68.70;;;35.13;;
24739;SDS011;45234;48.148;17.128;2022-11-03T22:24:35;60.67;;;33.28;;
24739;SDS011;45234;48.148;17.128;2022-11-03T22:27:20;70.07;;;37.40;;
24739;SDS011;45234;48.148;17.128;2022-11-03T22:29:47;64.88;;;35.72;;
24739;SDS011;45234;48.148;17.128;2022-11-03T22:32:33;67.32;;;36.25;;
24739;SDS011;45234;48.148;17.128;2022-11-03T22:35:01;68.35;;;38.25;;
24739;SDS011;45234;48.148;17.128;2022-11-03T22:37:59;76.35;;;40.08;;
24739;SDS011;45234;48.148;17.128;2022-11-03T22:40:27;76.13;;;40.60;;
24739;SDS011;45234;48.148;17.128;2022-11-03T22:43:12;73.90;;;39.00;;
24739;SDS011;45234;48.148;17.128;2022-11-03T22:45:57;81.30;;;41.00;;
24739;SDS011;45234;48.148;17.128;2022-11-03T22:48:24;80.03;;;41.10;;
24739;SDS011;45234;48.148;17.128;2022-11-03T22:51:01;76.22;;;41.10;;
24739;SDS011;45234;48.148;17.128;2022-11-03T22:53:31;84.25;;;40.55;;
24739;SDS011;45234;48.148;17.128;2022-11-03T22:56:17;93.03;;;43.13;;
24739;SDS011;45234;48.148;17.128;2022-11-03T22:58:45;79.95;;;40.38;;
24739;SDS011;45234;48.148;17.128;2022-11-03T23:01:13;81.95;;;41.15;;
24739;SDS011;45234;48.148;17.128;2022-11-03T23:03:43;83.57;;;41.25;;
24739;SDS011;45234;48.148;17.128;2022-11-03T23:06:21;85.97;;;41.97;;
24739;SDS011;45234;48.148;17.128;2022-11-03T23:08:52;89.93;;;43.60;;
24739;SDS011;45234;48.148;17.128;2022-11-03T23:11:22;80.55;;;40.22;;
24739;SDS011;45234;48.148;17.128;2022-11-03T23:13:57;90.13;;;42.08;;
24739;SDS011;45234;48.148;17.128;2022-11-03T23:16:27;84.25;;;40.40;;
24739;SDS011;45234;48.148;17.128;2022-11-03T23:18:58;83.72;;;42.53;;
24739;SDS011;45234;48.148;17.128;2022-11-03T23:21:44;84.30;;;41.80;;
24739;SDS011;45234;48.148;17.128;2022-11-03T23:24:13;81.57;;;41.75;;
24739;SDS011;45234;48.148;17.128;2022-11-03T23:26:58;85.70;;;39.80;;
24739;SDS011;45234;48.148;17.128;2022-11-03T23:29:26;88.20;;;41.83;;
24739;SDS011;45234;48.148;17.128;2022-11-03T23:31:54;83.88;;;41.03;;
24739;SDS011;45234;48.148;17.128;2022-11-03T23:34:22;84.40;;;41.97;;
24739;SDS011;45234;48.148;17.128;2022-11-03T23:36:50;84.35;;;43.33;;
24739;SDS011;45234;48.148;17.128;2022-11-03T23:39:18;96.90;;;45.78;;
24739;SDS011;45234;48.148;17.128;2022-11-03T23:41:47;88.55;;;44.13;;
24739;SDS011;45234;48.148;17.128;2022-11-03T23:44:17;82.43;;;42.15;;
24739;SDS011;45234;48.148;17.128;2022-11-03T23:46:44;83.10;;;44.72;;
24739;SDS011;45234;48.148;17.128;2022-11-03T23:49:29;86.90;;;46.13;;
24739;SDS011;45234;48.148;17.128;2022-11-03T23:51:56;87.25;;;44.05;;
24739;SDS011;45234;48.148;17.128;2022-11-03T23:54:23;94.72;;;46.28;;
24739;SDS011;45234;48.148;17.128;2022-11-03T23:56:51;92.85;;;45.47;;
24739;SDS011;45234;48.148;17.128;2022-11-03T23:59:37;94.68;;;46.80;;
